Anchor Bay, California
Current Conditions -  °F | °C
As of 12:56 PM on Saturday 22 Nov 2014 (Local Time) from KUKI Reporting Station
Few Clouds Few Clouds  
Wind Chill: 63°   Ceiling: Unl
Heat Index: 63°   Visibility: 10mi
Dew Point: 49°   Wind: 14mph
Humidity: 60%   Direction: 310°NW
Pressure: 30.11"   Gusts: 24mph
Location:  38.8361°N, 123.43°W
Report Text: KUKI 222056Z AUTO 31012G21KT 10SM FEW048 FEW065 17/09 A3011 RMK AO2 SLP190 60000 T01720094 50008
Loading
Personal Weather Stations






























Interactive Weather Map New forecast layout! Learn more

10-Day Weather Forecast

Advertisements
Track Severe Weather on mobile